createdAt,value
2022-10-15T00:01:48.676Z,38.67
2022-10-15T00:04:16.755Z,40.38
2022-10-15T00:06:46.920Z,39.75
2022-10-15T00:09:13.909Z,40.83
2022-10-15T00:11:41.124Z,39.40
2022-10-15T00:14:11.116Z,40.80
2022-10-15T00:16:40.466Z,38.95
2022-10-15T00:19:07.544Z,42.10
2022-10-15T00:21:34.663Z,39.03
2022-10-15T00:24:01.727Z,39.30
2022-10-15T00:26:31.924Z,42.00
2022-10-15T00:29:04.002Z,39.90
2022-10-15T00:31:33.099Z,39.97
2022-10-15T00:34:02.827Z,38.97
2022-10-15T00:36:33.490Z,39.88
2022-10-15T00:41:34.372Z,39.40
2022-10-15T00:44:23.214Z,39.95
2022-10-15T00:46:59.670Z,39.60
2022-10-15T00:49:40.364Z,38.80
2022-10-15T00:52:12.966Z,37.30
2022-10-15T00:54:52.899Z,38.42
2022-10-15T00:57:22.733Z,40.10
2022-10-15T01:00:00.245Z,37.95
2022-10-15T01:02:28.142Z,39.90
2022-10-15T01:04:56.662Z,39.58
2022-10-15T01:07:23.639Z,39.65
2022-10-15T01:09:52.062Z,39.53
2022-10-15T01:13:08.697Z,37.90
2022-10-15T01:15:43.366Z,40.45
2022-10-15T01:18:20.328Z,38.47
2022-10-15T01:20:54.047Z,38.45
2022-10-15T01:23:58.728Z,39.55
2022-10-15T01:26:51.460Z,40.25
2022-10-15T01:29:52.376Z,38.70
2022-10-15T01:32:37.707Z,39.38
2022-10-15T01:35:28.315Z,39.95
2022-10-15T01:38:18.542Z,38.15
2022-10-15T01:41:01.053Z,38.17
2022-10-15T01:43:52.352Z,39.13
2022-10-15T01:49:21.446Z,39.08
2022-10-15T01:51:50.807Z,40.55
2022-10-15T01:54:23.530Z,41.10
2022-10-15T01:56:54.610Z,40.08
2022-10-15T01:59:26.118Z,39.65
2022-10-15T02:01:58.031Z,38.28
2022-10-15T02:04:32.169Z,37.53
2022-10-15T02:07:33.731Z,38.00
2022-10-15T02:12:49.048Z,35.90
2022-10-15T02:15:32.010Z,36.17
2022-10-15T02:18:23.573Z,36.53
2022-10-15T02:21:06.966Z,36.70
2022-10-15T02:23:50.275Z,37.08
2022-10-15T02:28:51.847Z,34.30
2022-10-15T02:31:23.171Z,36.72
2022-10-15T02:33:54.569Z,35.53
2022-10-15T02:36:22.204Z,35.83
2022-10-15T02:38:52.487Z,34.17
2022-10-15T02:41:21.111Z,33.30
2022-10-15T02:43:49.149Z,32.72
2022-10-15T02:46:20.504Z,33.78
2022-10-15T02:48:50.173Z,33.55
2022-10-15T02:51:18.185Z,33.00
2022-10-15T02:53:45.453Z,34.40
2022-10-15T02:56:13.066Z,35.20
2022-10-15T02:58:43.917Z,34.92
2022-10-15T03:01:12.903Z,35.13
2022-10-15T03:03:40.418Z,33.85
2022-10-15T03:06:07.839Z,34.05
2022-10-15T03:08:34.857Z,33.70
2022-10-15T03:11:04.037Z,33.30
2022-10-15T03:13:36.134Z,32.67
2022-10-15T03:16:08.754Z,33.83
2022-10-15T03:18:40.634Z,32.97
2022-10-15T03:23:36.866Z,32.92
2022-10-15T03:26:14.211Z,32.35
2022-10-15T03:28:42.962Z,33.05
2022-10-15T03:31:14.412Z,35.03
2022-10-15T03:33:44.866Z,36.22
2022-10-15T03:36:11.949Z,32.50
2022-10-15T03:38:39.116Z,32.40
2022-10-15T03:41:11.053Z,34.05
2022-10-15T03:43:42.849Z,32.80
2022-10-15T03:46:10.689Z,33.97
2022-10-15T03:51:11.847Z,32.97
2022-10-15T03:53:40.825Z,33.38
2022-10-15T03:56:08.550Z,34.97
2022-10-15T03:58:38.778Z,35.25
2022-10-15T04:01:16.057Z,35.25
2022-10-15T04:03:44.127Z,35.55
2022-10-15T04:06:11.568Z,34.70
2022-10-15T04:08:39.632Z,35.72
2022-10-15T04:11:20.833Z,33.83
2022-10-15T04:13:56.916Z,33.60
2022-10-15T04:16:24.374Z,34.47
2022-10-15T04:18:51.449Z,33.63
2022-10-15T04:21:18.504Z,34.13
2022-10-15T04:23:50.293Z,34.72
2022-10-15T04:26:31.117Z,35.95
2022-10-15T04:29:00.667Z,32.08
2022-10-15T04:31:28.427Z,33.95
2022-10-15T04:33:56.844Z,35.25
2022-10-15T04:36:24.081Z,33.83
2022-10-15T04:39:02.065Z,32.28
2022-10-15T04:41:37.817Z,35.92
2022-10-15T04:44:10.688Z,33.50
2022-10-15T04:46:39.246Z,33.80
2022-10-15T04:49:23.901Z,33.72
2022-10-15T04:51:51.230Z,35.15
2022-10-15T04:57:04.673Z,36.83
2022-10-15T04:59:32.109Z,35.67
2022-10-15T05:02:19.588Z,34.15
2022-10-15T05:04:51.708Z,36.05
2022-10-15T05:07:19.053Z,35.15
2022-10-15T05:09:48.000Z,36.45
2022-10-15T05:12:15.980Z,34.80
2022-10-15T05:14:43.116Z,36.78
2022-10-15T05:17:16.780Z,35.40
2022-10-15T05:19:44.979Z,35.05
2022-10-15T05:22:18.962Z,35.05
2022-10-15T05:24:53.084Z,36.80
2022-10-15T05:27:31.582Z,35.70
2022-10-15T05:29:59.616Z,37.15
2022-10-15T05:32:35.719Z,35.15
2022-10-15T05:35:03.806Z,33.63
2022-10-15T05:37:47.336Z,35.70
2022-10-15T05:40:18.325Z,34.55
2022-10-15T05:43:01.154Z,34.22
2022-10-15T05:45:28.102Z,34.88
2022-10-15T05:47:58.450Z,35.13
2022-10-15T05:50:25.876Z,36.80
2022-10-15T05:52:55.918Z,35.50
2022-10-15T05:55:32.058Z,37.47
2022-10-15T05:58:03.410Z,37.13
2022-10-15T06:00:31.360Z,36.58
2022-10-15T06:02:58.699Z,35.00
2022-10-15T06:05:25.973Z,33.83
2022-10-15T06:07:53.234Z,37.50
2022-10-15T06:10:20.290Z,35.22
2022-10-15T06:12:51.403Z,35.90
2022-10-15T06:15:19.419Z,35.60
2022-10-15T06:17:46.565Z,35.00
2022-10-15T06:20:13.891Z,34.65
2022-10-15T06:22:40.941Z,34.53
2022-10-15T06:25:09.337Z,33.80
2022-10-15T06:27:36.434Z,36.13
2022-10-15T06:30:04.132Z,34.08
2022-10-15T06:32:31.419Z,34.53
2022-10-15T06:34:58.347Z,35.78
2022-10-15T06:37:26.744Z,35.75
2022-10-15T06:39:56.740Z,34.53
2022-10-15T06:42:23.946Z,34.95
2022-10-15T06:47:22.828Z,32.83
2022-10-15T06:49:50.265Z,35.22
2022-10-15T06:52:17.312Z,34.08
2022-10-15T06:54:44.778Z,33.45
2022-10-15T06:57:12.115Z,34.08
2022-10-15T06:59:41.341Z,33.13
2022-10-15T07:02:14.251Z,33.30
2022-10-15T07:04:41.171Z,34.33
2022-10-15T07:07:08.125Z,32.15
2022-10-15T07:09:35.515Z,34.10
2022-10-15T07:12:03.184Z,32.47
2022-10-15T07:14:30.241Z,32.28
2022-10-15T07:16:58.037Z,33.40
2022-10-15T07:19:26.600Z,32.17
2022-10-15T07:21:53.456Z,31.90
2022-10-15T07:24:20.734Z,30.75
2022-10-15T07:26:48.116Z,32.15
2022-10-15T07:29:15.189Z,31.38
2022-10-15T07:31:46.616Z,32.35
2022-10-15T07:34:16.514Z,33.03
2022-10-15T07:37:01.806Z,31.88
2022-10-15T07:39:29.439Z,30.98
2022-10-15T07:41:56.320Z,28.45
2022-10-15T07:44:23.281Z,29.10
2022-10-15T07:46:50.503Z,28.20
2022-10-15T07:49:17.575Z,30.05
2022-10-15T07:51:45.390Z,27.90
2022-10-15T07:54:12.499Z,29.13
2022-10-15T07:56:39.310Z,28.20
2022-10-15T07:59:08.277Z,28.55
2022-10-15T08:01:35.418Z,28.58
2022-10-15T08:04:02.672Z,27.88
2022-10-15T08:06:32.000Z,29.20
2022-10-15T08:08:59.728Z,27.63
2022-10-15T08:11:29.984Z,28.25
2022-10-15T08:13:57.155Z,28.25
2022-10-15T08:16:24.468Z,28.50
2022-10-15T08:19:00.053Z,28.63
2022-10-15T08:21:27.201Z,29.83
2022-10-15T08:23:54.262Z,28.23
2022-10-15T08:26:30.064Z,26.85
2022-10-15T08:28:57.291Z,28.88
2022-10-15T08:31:24.301Z,25.48
2022-10-15T08:33:51.606Z,29.58
2022-10-15T08:36:18.667Z,26.15
2022-10-15T08:38:45.796Z,26.65
2022-10-15T08:41:26.272Z,24.58
2022-10-15T08:43:53.459Z,24.98
2022-10-15T08:46:25.517Z,24.38
2022-10-15T08:48:58.455Z,24.08
2022-10-15T08:51:34.078Z,23.80
2022-10-15T08:54:04.583Z,24.38
2022-10-15T08:56:36.902Z,23.60
2022-10-15T08:59:33.454Z,23.33
2022-10-15T09:02:31.203Z,23.10
2022-10-15T09:05:24.802Z,22.50
2022-10-15T09:08:13.240Z,22.25
2022-10-15T09:11:17.847Z,22.02
2022-10-15T09:13:46.987Z,21.40
2022-10-15T09:16:28.700Z,22.00
2022-10-15T09:18:58.613Z,23.48
2022-10-15T09:21:28.286Z,22.77
2022-10-15T09:23:58.977Z,21.52
2022-10-15T09:26:34.682Z,22.67
2022-10-15T09:29:18.422Z,21.58
2022-10-15T09:32:21.264Z,21.20
2022-10-15T09:35:00.575Z,21.50
2022-10-15T09:37:43.434Z,21.45
2022-10-15T09:40:13.572Z,19.98
2022-10-15T09:42:42.855Z,20.15
2022-10-15T09:45:15.647Z,20.77
2022-10-15T09:47:43.975Z,20.33
2022-10-15T09:50:13.591Z,20.65
2022-10-15T09:53:13.279Z,19.75
2022-10-15T09:56:04.428Z,20.08
2022-10-15T09:58:39.882Z,19.88
2022-10-15T10:01:17.017Z,20.50
2022-10-15T10:03:43.927Z,20.33
2022-10-15T10:06:13.849Z,21.02
2022-10-15T10:08:51.592Z,19.92
2022-10-15T10:11:20.032Z,20.40
2022-10-15T10:14:00.461Z,18.50
2022-10-15T10:16:30.169Z,18.20
2022-10-15T10:19:13.676Z,19.05
2022-10-15T10:21:42.906Z,18.88
2022-10-15T10:24:31.938Z,19.92
2022-10-15T10:26:59.952Z,20.48
2022-10-15T10:29:35.435Z,17.27
2022-10-15T10:32:21.951Z,17.02
2022-10-15T10:34:52.892Z,18.35
2022-10-15T10:40:01.126Z,18.02
2022-10-15T10:42:34.163Z,17.88
2022-10-15T10:45:18.876Z,17.38
2022-10-15T10:47:46.759Z,16.85
2022-10-15T10:50:30.088Z,17.52
2022-10-15T10:53:00.072Z,16.10
2022-10-15T10:55:37.900Z,18.10
2022-10-15T10:58:05.674Z,16.25
2022-10-15T11:00:47.757Z,16.20
2022-10-15T11:03:27.135Z,16.33
2022-10-15T11:06:12.155Z,15.43
2022-10-15T11:08:55.477Z,15.40
2022-10-15T11:11:32.016Z,14.90
2022-10-15T11:14:09.458Z,15.80
2022-10-15T11:17:14.074Z,16.13
2022-10-15T11:20:36.770Z,13.98
2022-10-15T11:23:15.888Z,14.80
2022-10-15T11:25:59.445Z,14.77
2022-10-15T11:28:59.722Z,13.93
2022-10-15T11:31:37.197Z,13.85
2022-10-15T11:34:32.831Z,14.07
2022-10-15T11:37:26.131Z,14.77
2022-10-15T11:40:20.090Z,14.68
2022-10-15T11:43:14.394Z,13.05
2022-10-15T11:45:52.105Z,13.38
2022-10-15T11:48:37.554Z,14.00
2022-10-15T11:51:45.313Z,13.65
2022-10-15T11:54:57.426Z,14.38
2022-10-15T11:57:26.408Z,12.63
2022-10-15T12:00:00.910Z,12.75
2022-10-15T12:02:35.406Z,13.25
2022-10-15T12:05:09.398Z,13.75
2022-10-15T12:07:41.328Z,13.45
2022-10-15T12:10:13.751Z,12.80
2022-10-15T12:12:59.002Z,12.65
2022-10-15T12:15:52.001Z,12.90
2022-10-15T12:18:40.068Z,13.80
2022-10-15T12:21:37.157Z,12.93
2022-10-15T12:24:25.559Z,13.88
2022-10-15T12:26:52.802Z,13.80
2022-10-15T12:29:23.760Z,13.27
2022-10-15T12:31:55.788Z,13.15
2022-10-15T12:34:27.112Z,13.05
2022-10-15T12:37:22.863Z,12.70
2022-10-15T12:39:57.280Z,13.00
2022-10-15T12:42:40.556Z,12.90
2022-10-15T12:45:22.754Z,13.30
2022-10-15T12:48:33.225Z,12.20
2022-10-15T12:51:21.914Z,13.18
2022-10-15T12:53:51.142Z,12.98
2022-10-15T12:56:21.752Z,12.38
2022-10-15T12:58:53.492Z,12.85
2022-10-15T13:01:20.674Z,13.23
2022-10-15T13:03:50.741Z,12.68
2022-10-15T13:06:20.867Z,12.35
2022-10-15T13:08:50.895Z,12.73
2022-10-15T13:11:25.647Z,13.68
2022-10-15T13:13:58.846Z,13.85
2022-10-15T13:16:26.657Z,12.98
2022-10-15T13:18:56.627Z,12.77
2022-10-15T13:21:47.499Z,13.00
2022-10-15T13:24:18.826Z,13.43
2022-10-15T13:26:46.303Z,12.80
2022-10-15T13:29:18.505Z,13.85
2022-10-15T13:31:46.339Z,12.88
2022-10-15T13:34:36.435Z,13.68
2022-10-15T13:37:04.881Z,13.57
2022-10-15T13:39:40.124Z,13.00
2022-10-15T13:42:16.474Z,23.00
2022-10-15T13:44:56.204Z,14.02
2022-10-15T13:47:40.502Z,13.93
2022-10-15T13:50:17.992Z,15.02
2022-10-15T13:53:06.573Z,13.80
2022-10-15T13:55:37.594Z,13.85
2022-10-15T13:58:34.300Z,15.00
2022-10-15T14:01:09.203Z,13.85
2022-10-15T14:03:39.319Z,13.50
2022-10-15T14:06:26.735Z,13.88
2022-10-15T14:08:57.264Z,12.90
2022-10-15T14:11:25.255Z,13.98
2022-10-15T14:13:55.589Z,14.60
2022-10-15T14:16:30.635Z,13.77
2022-10-15T14:19:06.783Z,13.85
2022-10-15T14:21:36.935Z,14.40
2022-10-15T14:24:12.222Z,14.52
2022-10-15T14:26:40.380Z,15.73
2022-10-15T14:29:19.288Z,13.75
2022-10-15T14:31:48.189Z,14.35
2022-10-15T14:34:40.203Z,13.90
2022-10-15T14:37:30.842Z,13.30
2022-10-15T14:40:10.032Z,13.52
2022-10-15T14:42:44.415Z,14.45
2022-10-15T14:45:17.470Z,14.77
2022-10-15T14:47:51.142Z,13.40
2022-10-15T14:50:19.458Z,14.30
2022-10-15T14:52:52.359Z,14.80
2022-10-15T14:55:43.403Z,14.13
2022-10-15T14:58:22.133Z,15.60
2022-10-15T15:00:59.043Z,14.25
2022-10-15T15:03:32.031Z,14.43
2022-10-15T15:05:59.281Z,14.15
2022-10-15T15:08:28.729Z,15.38
2022-10-15T15:10:59.842Z,14.40
2022-10-15T15:13:29.549Z,14.82
2022-10-15T15:15:57.359Z,15.02
2022-10-15T15:18:24.427Z,14.73
2022-10-15T15:20:51.786Z,13.75
2022-10-15T15:23:26.518Z,14.38
2022-10-15T15:25:54.944Z,14.25
2022-10-15T15:28:25.335Z,13.63
2022-10-15T15:30:58.637Z,13.93
2022-10-15T15:33:28.180Z,14.50
2022-10-15T15:36:00.963Z,14.77
2022-10-15T15:38:31.491Z,14.15
2022-10-15T15:41:15.645Z,14.57
2022-10-15T15:43:43.106Z,15.55
2022-10-15T15:46:10.857Z,14.27
2022-10-15T15:48:38.185Z,15.75
2022-10-15T15:51:12.344Z,14.63
2022-10-15T15:53:39.241Z,14.35
2022-10-15T15:56:06.914Z,14.88
2022-10-15T15:58:33.839Z,15.02
2022-10-15T16:01:01.648Z,15.20
2022-10-15T16:03:28.765Z,16.60
2022-10-15T16:05:57.453Z,15.07
2022-10-15T16:08:24.755Z,15.75
2022-10-15T16:10:52.447Z,14.90
2022-10-15T16:13:19.593Z,15.05
2022-10-15T16:15:46.761Z,15.75
2022-10-15T16:18:13.929Z,15.43
2022-10-15T16:20:46.240Z,16.42
2022-10-15T16:23:15.338Z,15.75
2022-10-15T16:25:42.596Z,16.92
2022-10-15T16:28:09.519Z,16.38
2022-10-15T16:30:36.800Z,16.30
2022-10-15T16:33:04.338Z,16.00
2022-10-15T16:35:31.577Z,17.33
2022-10-15T16:37:58.592Z,17.52
2022-10-15T16:40:26.028Z,16.52
2022-10-15T16:42:53.051Z,17.00
2022-10-15T16:45:20.446Z,16.65
2022-10-15T16:47:48.862Z,17.17
2022-10-15T16:50:17.076Z,16.98
2022-10-15T16:52:44.759Z,18.10
2022-10-15T16:55:14.334Z,16.63
2022-10-15T16:57:42.003Z,17.48
2022-10-15T17:00:11.215Z,16.95
2022-10-15T17:02:38.154Z,17.02
2022-10-15T17:05:05.643Z,16.95
2022-10-15T17:07:32.680Z,18.02
2022-10-15T17:10:00.388Z,16.75
2022-10-15T17:12:28.017Z,17.67
2022-10-15T17:14:55.412Z,20.52
2022-10-15T17:17:22.419Z,21.33
2022-10-15T17:19:49.561Z,19.80
2022-10-15T17:22:16.492Z,21.38
2022-10-15T17:24:43.886Z,20.48
2022-10-15T17:27:10.794Z,21.60
2022-10-15T17:29:38.237Z,22.15
2022-10-15T17:32:05.199Z,22.35
2022-10-15T17:34:32.611Z,22.63
2022-10-15T17:36:59.582Z,22.40
2022-10-15T17:39:27.175Z,22.30
2022-10-15T17:41:54.184Z,21.33
2022-10-15T17:44:21.778Z,21.02
2022-10-15T17:49:28.547Z,21.52
2022-10-15T17:51:55.867Z,21.83
2022-10-15T17:54:23.421Z,22.58
2022-10-15T17:56:50.413Z,22.10
2022-10-15T17:59:18.186Z,21.60
2022-10-15T18:01:57.939Z,21.40
2022-10-15T18:04:27.915Z,21.88
2022-10-15T18:06:55.028Z,20.83
2022-10-15T18:09:25.351Z,20.65
2022-10-15T18:11:55.986Z,21.58
2022-10-15T18:14:29.024Z,20.38
2022-10-15T18:16:56.838Z,20.98
2022-10-15T18:19:27.772Z,21.65
2022-10-15T18:21:55.642Z,21.00
2022-10-15T18:24:24.037Z,21.42
2022-10-15T18:26:51.776Z,20.83
2022-10-15T18:29:19.511Z,21.83
2022-10-15T18:31:53.385Z,21.33
2022-10-15T18:34:23.615Z,22.02
2022-10-15T18:37:08.824Z,21.80
2022-10-15T18:39:37.353Z,20.80
2022-10-15T18:42:04.243Z,20.75
2022-10-15T18:44:33.485Z,22.00
2022-10-15T18:47:00.938Z,21.30
2022-10-15T18:49:28.192Z,20.50
2022-10-15T18:51:55.739Z,21.15
2022-10-15T18:54:22.968Z,20.90
2022-10-15T18:56:51.058Z,20.55
2022-10-15T18:59:19.872Z,22.20
2022-10-15T19:01:49.470Z,20.52
2022-10-15T19:04:19.385Z,21.52
2022-10-15T19:06:49.331Z,19.67
2022-10-15T19:09:25.447Z,20.10
2022-10-15T19:11:54.464Z,20.00
2022-10-15T19:14:22.533Z,19.48
2022-10-15T19:16:50.962Z,19.33
2022-10-15T19:19:20.484Z,20.40
2022-10-15T19:21:50.022Z,19.33
2022-10-15T19:24:19.338Z,19.75
2022-10-15T19:26:48.811Z,21.23
2022-10-15T19:29:16.262Z,20.08
2022-10-15T19:31:48.646Z,19.27
2022-10-15T19:34:16.294Z,20.02
2022-10-15T19:36:49.104Z,19.83
2022-10-15T19:39:21.033Z,19.52
2022-10-15T19:41:49.053Z,19.17
2022-10-15T19:44:20.130Z,20.00
2022-10-15T19:46:47.730Z,20.05
2022-10-15T19:49:15.565Z,19.70
2022-10-15T19:51:42.872Z,19.95
2022-10-15T19:54:10.207Z,20.73
2022-10-15T19:56:37.294Z,20.52
2022-10-15T19:59:05.971Z,19.38
2022-10-15T20:01:33.563Z,18.85
2022-10-15T20:04:05.906Z,17.98
2022-10-15T20:06:35.178Z,19.60
2022-10-15T20:09:02.367Z,18.60
2022-10-15T20:11:29.636Z,19.08
2022-10-15T20:13:58.748Z,18.85
2022-10-15T20:16:27.529Z,19.30
2022-10-15T20:18:57.171Z,19.65
2022-10-15T20:21:24.253Z,19.90
2022-10-15T20:23:51.381Z,19.40
2022-10-15T20:26:18.438Z,19.52
2022-10-15T20:28:46.846Z,19.35
2022-10-15T20:31:20.586Z,20.20
2022-10-15T20:33:49.428Z,19.20
2022-10-15T20:36:23.549Z,18.38
2022-10-15T20:38:52.011Z,19.40
2022-10-15T20:41:19.753Z,18.40
2022-10-15T20:43:52.989Z,17.73
2022-10-15T20:46:25.694Z,18.45
2022-10-15T20:48:54.414Z,17.80
2022-10-15T20:51:23.466Z,18.15
2022-10-15T20:53:55.582Z,19.63
2022-10-15T20:56:23.522Z,18.23
2022-10-15T20:58:51.099Z,18.08
2022-10-15T21:01:19.894Z,16.48
2022-10-15T21:03:47.406Z,16.60
2022-10-15T21:06:14.522Z,16.98
2022-10-15T21:08:41.960Z,16.27
2022-10-15T21:11:09.605Z,16.80
2022-10-15T21:13:36.937Z,17.05
2022-10-15T21:16:06.136Z,15.20
2022-10-15T21:18:35.446Z,15.30
2022-10-15T21:21:05.699Z,14.60
2022-10-15T21:23:33.098Z,14.75
2022-10-15T21:26:15.028Z,14.40
2022-10-15T21:28:43.095Z,14.32
2022-10-15T21:31:13.453Z,14.48
2022-10-15T21:33:41.507Z,13.98
2022-10-15T21:36:23.386Z,14.73
2022-10-15T21:38:54.844Z,14.52
2022-10-15T21:41:23.234Z,13.32
2022-10-15T21:46:17.945Z,13.82
2022-10-15T21:48:45.560Z,13.93
2022-10-15T21:51:15.252Z,14.10
2022-10-15T21:53:43.251Z,12.93
2022-10-15T21:56:10.561Z,12.98
2022-10-15T21:58:39.951Z,12.63
2022-10-15T22:01:08.939Z,13.35
2022-10-15T22:03:36.312Z,13.05
2022-10-15T22:06:04.735Z,12.88
2022-10-15T22:08:32.660Z,13.32
2022-10-15T22:11:14.146Z,13.30
2022-10-15T22:13:43.064Z,11.77
2022-10-15T22:16:10.981Z,12.77
2022-10-15T22:18:39.013Z,12.75
2022-10-15T22:21:17.372Z,12.85
2022-10-15T22:23:46.174Z,11.90
2022-10-15T22:26:14.445Z,12.68
2022-10-15T22:28:42.158Z,12.88
2022-10-15T22:31:14.301Z,12.60
2022-10-15T22:33:42.611Z,13.10
2022-10-15T22:36:30.232Z,13.40
2022-10-15T22:39:03.273Z,11.85
2022-10-15T22:41:35.950Z,13.18
2022-10-15T22:44:04.020Z,12.95
2022-10-15T22:46:39.136Z,13.23
2022-10-15T22:49:07.997Z,13.43
2022-10-15T22:51:35.387Z,13.65
2022-10-15T22:54:02.648Z,13.50
2022-10-15T22:56:30.767Z,13.80
2022-10-15T22:58:58.748Z,13.15
2022-10-15T23:01:28.435Z,11.90
2022-10-15T23:03:57.985Z,12.48
2022-10-15T23:06:26.202Z,13.07
2022-10-15T23:08:55.962Z,12.80
2022-10-15T23:11:39.025Z,12.30
2022-10-15T23:14:16.373Z,12.98
2022-10-15T23:16:46.399Z,13.48
2022-10-15T23:19:19.657Z,12.80
2022-10-15T23:21:56.541Z,13.13
2022-10-15T23:24:25.979Z,12.32
2022-10-15T23:26:53.931Z,12.40
2022-10-15T23:29:23.969Z,12.38
2022-10-15T23:31:52.040Z,12.48
2022-10-15T23:34:22.188Z,11.40
2022-10-15T23:36:49.992Z,11.68
2022-10-15T23:39:19.473Z,11.52
2022-10-15T23:41:47.063Z,12.43
2022-10-15T23:44:14.180Z,12.75
2022-10-15T23:46:41.292Z,11.57
2022-10-15T23:49:08.961Z,11.60
2022-10-15T23:51:36.283Z,11.18
2022-10-15T23:54:08.627Z,10.32
2022-10-15T23:56:35.782Z,10.48
2022-10-15T23:59:03.069Z,10.98
